sensor_id;sensor_type;location;lat;lon;timestamp;pressure;altitude;pressure_sealevel;temperature;humidity
47761;BME280;33524;55.434;38.520;2023-03-04T00:01:58;98685.38;;;-2.13;84.33
47761;BME280;33524;55.434;38.520;2023-03-04T00:04:28;98679.28;;;-2.11;84.11
47761;BME280;33524;55.434;38.520;2023-03-04T00:06:58;98676.47;;;-2.06;83.78
47761;BME280;33524;55.434;38.520;2023-03-04T00:09:29;98672.97;;;-2.05;83.82
47761;BME280;33524;55.434;38.520;2023-03-04T00:11:58;98673.38;;;-2.13;83.89
47761;BME280;33524;55.434;38.520;2023-03-04T00:14:28;98667.59;;;-2.18;83.84
47761;BME280;33524;55.434;38.520;2023-03-04T00:16:57;98666.13;;;-2.24;84.46
47761;BME280;33524;55.434;38.520;2023-03-04T00:19:27;98665.53;;;-2.29;84.74
47761;BME280;33524;55.434;38.520;2023-03-04T00:21:57;98665.19;;;-2.21;84.38
47761;BME280;33524;55.434;38.520;2023-03-04T00:24:27;98656.56;;;-2.39;84.97
47761;BME280;33524;55.434;38.520;2023-03-04T00:26:57;98657.47;;;-2.40;85.36
47761;BME280;33524;55.434;38.520;2023-03-04T00:29:28;98643.84;;;-2.42;85.03
47761;BME280;33524;55.434;38.520;2023-03-04T00:31:57;98652.47;;;-2.43;85.28
47761;BME280;33524;55.434;38.520;2023-03-04T00:34:27;98644.59;;;-2.76;86.71
47761;BME280;33524;55.434;38.520;2023-03-04T00:36:59;98646.84;;;-2.51;86.05
47761;BME280;33524;55.434;38.520;2023-03-04T00:39:31;98643.25;;;-2.66;86.08
47761;BME280;33524;55.434;38.520;2023-03-04T00:42:01;98637.91;;;-2.61;86.23
47761;BME280;33524;55.434;38.520;2023-03-04T00:44:30;98638.50;;;-2.56;86.08
47761;BME280;33524;55.434;38.520;2023-03-04T00:47:00;98624.75;;;-2.55;85.74
47761;BME280;33524;55.434;38.520;2023-03-04T00:49:29;98620.87;;;-2.47;85.20
47761;BME280;33524;55.434;38.520;2023-03-04T00:51:59;98615.63;;;-2.44;85.08
47761;BME280;33524;55.434;38.520;2023-03-04T00:54:28;98615.69;;;-2.45;85.00
47761;BME280;33524;55.434;38.520;2023-03-04T00:57:00;98616.84;;;-2.52;85.24
47761;BME280;33524;55.434;38.520;2023-03-04T00:59:29;98610.06;;;-2.53;85.25
47761;BME280;33524;55.434;38.520;2023-03-04T01:01:59;98605.03;;;-2.56;85.35
47761;BME280;33524;55.434;38.520;2023-03-04T01:04:30;98612.75;;;-2.56;85.41
47761;BME280;33524;55.434;38.520;2023-03-04T01:06:59;98615.50;;;-2.59;85.44
47761;BME280;33524;55.434;38.520;2023-03-04T01:09:29;98601.63;;;-2.57;85.29
47761;BME280;33524;55.434;38.520;2023-03-04T01:12:00;98610.12;;;-2.55;85.15
47761;BME280;33524;55.434;38.520;2023-03-04T01:14:29;98612.00;;;-2.58;85.13
47761;BME280;33524;55.434;38.520;2023-03-04T01:16:58;98603.53;;;-2.60;85.20
47761;BME280;33524;55.434;38.520;2023-03-04T01:19:29;98611.19;;;-2.59;85.17
47761;BME280;33524;55.434;38.520;2023-03-04T01:21:58;98611.25;;;-2.60;85.06
47761;BME280;33524;55.434;38.520;2023-03-04T01:24:29;98614.91;;;-2.65;85.23
47761;BME280;33524;55.434;38.520;2023-03-04T01:26:59;98605.19;;;-2.59;84.99
47761;BME280;33524;55.434;38.520;2023-03-04T01:29:28;98610.19;;;-2.56;84.81
47761;BME280;33524;55.434;38.520;2023-03-04T01:31:57;98609.81;;;-2.66;85.31
47761;BME280;33524;55.434;38.520;2023-03-04T01:34:30;98610.97;;;-3.10;84.21
47761;BME280;33524;55.434;38.520;2023-03-04T01:36:59;98605.25;;;-3.16;86.81
47761;BME280;33524;55.434;38.520;2023-03-04T01:39:29;98606.56;;;-3.66;86.24
47761;BME280;33524;55.434;38.520;2023-03-04T01:41:58;98620.50;;;-4.55;87.79
47761;BME280;33524;55.434;38.520;2023-03-04T01:44:28;98619.13;;;-4.86;91.06
47761;BME280;33524;55.434;38.520;2023-03-04T01:46:58;98609.25;;;-5.19;93.96
47761;BME280;33524;55.434;38.520;2023-03-04T01:49:29;98609.38;;;-5.22;95.71
47761;BME280;33524;55.434;38.520;2023-03-04T01:51:59;98608.50;;;-4.99;96.39
47761;BME280;33524;55.434;38.520;2023-03-04T01:54:30;98606.31;;;-4.86;96.43
47761;BME280;33524;55.434;38.520;2023-03-04T01:57:00;98601.63;;;-4.75;96.44
47761;BME280;33524;55.434;38.520;2023-03-04T01:59:30;98601.31;;;-4.67;96.36
47761;BME280;33524;55.434;38.520;2023-03-04T02:02:01;98598.44;;;-4.59;96.52
47761;BME280;33524;55.434;38.520;2023-03-04T02:04:32;98593.84;;;-4.51;96.71
47761;BME280;33524;55.434;38.520;2023-03-04T02:07:03;98600.22;;;-4.39;98.33
47761;BME280;33524;55.434;38.520;2023-03-04T02:09:34;98591.84;;;-4.02;96.64
47761;BME280;33524;55.434;38.520;2023-03-04T02:12:19;98590.25;;;-4.04;96.17
47761;BME280;33524;55.434;38.520;2023-03-04T02:14:49;98593.88;;;-4.10;96.36
47761;BME280;33524;55.434;38.520;2023-03-04T02:17:39;98594.19;;;-4.18;96.49
47761;BME280;33524;55.434;38.520;2023-03-04T02:20:24;98587.94;;;-4.11;96.39
47761;BME280;33524;55.434;38.520;2023-03-04T02:23:32;98583.94;;;-4.18;97.79
47761;BME280;33524;55.434;38.520;2023-03-04T02:26:16;98580.25;;;-4.33;99.29
47761;BME280;33524;55.434;38.520;2023-03-04T02:28:50;98572.75;;;-4.37;100.00
47761;BME280;33524;55.434;38.520;2023-03-04T02:31:25;98569.75;;;-4.06;99.52
47761;BME280;33524;55.434;38.520;2023-03-04T02:33:59;98566.34;;;-4.07;99.97
47761;BME280;33524;55.434;38.520;2023-03-04T02:36:28;98569.53;;;-4.22;100.00
47761;BME280;33524;55.434;38.520;2023-03-04T02:39:04;98574.34;;;-4.35;100.00
47761;BME280;33524;55.434;38.520;2023-03-04T02:41:36;98561.03;;;-4.22;100.00
47761;BME280;33524;55.434;38.520;2023-03-04T02:44:16;98554.28;;;-4.46;100.00
47761;BME280;33524;55.434;38.520;2023-03-04T02:46:46;98554.66;;;-4.14;100.00
47761;BME280;33524;55.434;38.520;2023-03-04T02:49:18;98542.03;;;-4.18;100.00
47761;BME280;33524;55.434;38.520;2023-03-04T02:51:51;98540.41;;;-4.00;100.00
47761;BME280;33524;55.434;38.520;2023-03-04T02:54:22;98531.91;;;-4.01;100.00
47761;BME280;33524;55.434;38.520;2023-03-04T02:56:55;98526.84;;;-3.83;100.00
47761;BME280;33524;55.434;38.520;2023-03-04T02:59:25;98532.75;;;-3.81;100.00
47761;BME280;33524;55.434;38.520;2023-03-04T03:01:56;98536.41;;;-3.87;100.00
47761;BME280;33524;55.434;38.520;2023-03-04T03:04:26;98539.47;;;-4.18;100.00
47761;BME280;33524;55.434;38.520;2023-03-04T03:06:56;98530.25;;;-3.83;100.00
47761;BME280;33524;55.434;38.520;2023-03-04T03:09:28;98529.97;;;-3.77;100.00
47761;BME280;33524;55.434;38.520;2023-03-04T03:11:57;98526.19;;;-3.89;100.00
47761;BME280;33524;55.434;38.520;2023-03-04T03:14:28;98514.50;;;-3.75;100.00
47761;BME280;33524;55.434;38.520;2023-03-04T03:16:59;98514.78;;;-3.62;100.00
47761;BME280;33524;55.434;38.520;2023-03-04T03:19:29;98500.63;;;-3.71;100.00
47761;BME280;33524;55.434;38.520;2023-03-04T03:21:59;98505.22;;;-3.59;100.00
47761;BME280;33524;55.434;38.520;2023-03-04T03:24:29;98502.41;;;-3.54;100.00
47761;BME280;33524;55.434;38.520;2023-03-04T03:27:00;98499.09;;;-3.56;100.00
47761;BME280;33524;55.434;38.520;2023-03-04T03:29:30;98487.22;;;-3.40;99.69
47761;BME280;33524;55.434;38.520;2023-03-04T03:31:59;98482.06;;;-3.40;99.61
47761;BME280;33524;55.434;38.520;2023-03-04T03:34:29;98487.28;;;-3.41;99.60
47761;BME280;33524;55.434;38.520;2023-03-04T03:36:59;98473.66;;;-3.43;99.74
47761;BME280;33524;55.434;38.520;2023-03-04T03:39:28;98477.84;;;-3.41;99.99
47761;BME280;33524;55.434;38.520;2023-03-04T03:41:58;98474.28;;;-3.38;99.67
47761;BME280;33524;55.434;38.520;2023-03-04T03:44:28;98476.72;;;-3.35;99.70
47761;BME280;33524;55.434;38.520;2023-03-04T03:46:57;98470.69;;;-3.34;99.48
47761;BME280;33524;55.434;38.520;2023-03-04T03:49:27;98469.56;;;-3.29;99.46
47761;BME280;33524;55.434;38.520;2023-03-04T03:51:57;98467.66;;;-3.25;99.28
47761;BME280;33524;55.434;38.520;2023-03-04T03:54:26;98470.28;;;-3.27;99.11
47761;BME280;33524;55.434;38.520;2023-03-04T03:56:56;98472.81;;;-3.25;99.28
47761;BME280;33524;55.434;38.520;2023-03-04T03:59:26;98465.72;;;-3.20;99.39
47761;BME280;33524;55.434;38.520;2023-03-04T04:01:56;98458.19;;;-3.06;98.14
47761;BME280;33524;55.434;38.520;2023-03-04T04:04:26;98459.78;;;-3.03;98.17
47761;BME280;33524;55.434;38.520;2023-03-04T04:06:55;98453.34;;;-3.12;98.75
47761;BME280;33524;55.434;38.520;2023-03-04T04:09:25;98452.41;;;-3.11;98.97
47761;BME280;33524;55.434;38.520;2023-03-04T04:11:55;98445.53;;;-3.10;98.69
47761;BME280;33524;55.434;38.520;2023-03-04T04:14:25;98452.41;;;-3.11;98.81
47761;BME280;33524;55.434;38.520;2023-03-04T04:16:54;98435.25;;;-3.10;98.63
47761;BME280;33524;55.434;38.520;2023-03-04T04:19:24;98447.59;;;-2.99;98.78
47761;BME280;33524;55.434;38.520;2023-03-04T04:21:54;98428.16;;;-3.05;98.73
47761;BME280;33524;55.434;38.520;2023-03-04T04:24:23;98444.13;;;-2.98;98.79
47761;BME280;33524;55.434;38.520;2023-03-04T04:26:53;98444.13;;;-2.98;98.73
47761;BME280;33524;55.434;38.520;2023-03-04T04:29:23;98448.44;;;-2.99;98.75
47761;BME280;33524;55.434;38.520;2023-03-04T04:31:52;98436.25;;;-2.95;98.42
47761;BME280;33524;55.434;38.520;2023-03-04T04:34:22;98439.28;;;-2.87;98.31
47761;BME280;33524;55.434;38.520;2023-03-04T04:36:53;98435.09;;;-2.90;98.65
47761;BME280;33524;55.434;38.520;2023-03-04T04:39:29;98427.94;;;-2.83;98.65
47761;BME280;33524;55.434;38.520;2023-03-04T04:42:02;98420.81;;;-2.78;98.44
47761;BME280;33524;55.434;38.520;2023-03-04T04:44:33;98422.63;;;-2.80;98.45
47761;BME280;33524;55.434;38.520;2023-03-04T04:47:08;98419.00;;;-2.76;98.32
47761;BME280;33524;55.434;38.520;2023-03-04T04:49:38;98412.88;;;-2.73;98.51
47761;BME280;33524;55.434;38.520;2023-03-04T04:52:08;98411.16;;;-2.73;98.97
47761;BME280;33524;55.434;38.520;2023-03-04T04:54:37;98405.69;;;-2.67;99.14
47761;BME280;33524;55.434;38.520;2023-03-04T04:57:10;98408.03;;;-2.62;99.22
47761;BME280;33524;55.434;38.520;2023-03-04T04:59:41;98409.59;;;-2.59;99.43
47761;BME280;33524;55.434;38.520;2023-03-04T05:02:11;98409.59;;;-2.59;99.25
47761;BME280;33524;55.434;38.520;2023-03-04T05:04:40;98404.91;;;-2.51;99.03
47761;BME280;33524;55.434;38.520;2023-03-04T05:07:09;98406.56;;;-2.50;98.98
47761;BME280;33524;55.434;38.520;2023-03-04T05:09:39;98407.31;;;-2.48;99.19
47761;BME280;33524;55.434;38.520;2023-03-04T05:12:09;98410.31;;;-2.40;99.13
47761;BME280;33524;55.434;38.520;2023-03-04T05:14:39;98399.87;;;-2.37;99.02
47761;BME280;33524;55.434;38.520;2023-03-04T05:17:08;98408.03;;;-2.29;97.83
47761;BME280;33524;55.434;38.520;2023-03-04T05:19:38;98401.66;;;-2.21;96.08
47761;BME280;33524;55.434;38.520;2023-03-04T05:22:08;98404.53;;;-2.28;97.51
47761;BME280;33524;55.434;38.520;2023-03-04T05:24:38;98401.50;;;-2.18;97.88
47761;BME280;33524;55.434;38.520;2023-03-04T05:27:07;98407.87;;;-2.26;98.65
47761;BME280;33524;55.434;38.520;2023-03-04T05:29:38;98410.00;;;-2.34;99.04
47761;BME280;33524;55.434;38.520;2023-03-04T05:32:08;98409.53;;;-2.25;98.78
47761;BME280;33524;55.434;38.520;2023-03-04T05:34:38;98411.38;;;-2.27;99.26
47761;BME280;33524;55.434;38.520;2023-03-04T05:37:07;98405.47;;;-2.29;99.22
47761;BME280;33524;55.434;38.520;2023-03-04T05:39:36;98409.19;;;-2.34;99.15
47761;BME280;33524;55.434;38.520;2023-03-04T05:42:07;98407.13;;;-2.28;99.20
47761;BME280;33524;55.434;38.520;2023-03-04T05:44:36;98408.91;;;-2.12;99.02
47761;BME280;33524;55.434;38.520;2023-03-04T05:47:06;98410.00;;;-2.00;99.17
47761;BME280;33524;55.434;38.520;2023-03-04T05:49:35;98405.59;;;-1.83;99.35
47761;BME280;33524;55.434;38.520;2023-03-04T05:52:04;98405.28;;;-1.76;99.42
47761;BME280;33524;55.434;38.520;2023-03-04T05:54:35;98398.88;;;-1.69;99.51
47761;BME280;33524;55.434;38.520;2023-03-04T05:57:08;98406.09;;;-1.60;99.25
47761;BME280;33524;55.434;38.520;2023-03-04T05:59:38;98405.34;;;-1.62;99.21
47761;BME280;33524;55.434;38.520;2023-03-04T06:02:07;98409.63;;;-1.61;98.93
47761;BME280;33524;55.434;38.520;2023-03-04T06:04:37;98409.28;;;-1.55;98.79
47761;BME280;33524;55.434;38.520;2023-03-04T06:07:08;98399.97;;;-1.73;97.77
47761;BME280;33524;55.434;38.520;2023-03-04T06:09:41;98408.13;;;-1.65;98.25
47761;BME280;33524;55.434;38.520;2023-03-04T06:12:13;98405.44;;;-1.32;98.97
47761;BME280;33524;55.434;38.520;2023-03-04T06:14:42;98394.47;;;-1.05;98.72
47761;BME280;33524;55.434;38.520;2023-03-04T06:17:11;98389.44;;;-0.92;98.52
47761;BME280;33524;55.434;38.520;2023-03-04T06:19:41;98391.81;;;-0.89;97.71
47761;BME280;33524;55.434;38.520;2023-03-04T06:22:12;98387.28;;;-0.70;97.54
47761;BME280;33524;55.434;38.520;2023-03-04T06:24:41;98385.09;;;-0.47;96.33
47761;BME280;33524;55.434;38.520;2023-03-04T06:27:11;98386.47;;;-0.42;95.96
47761;BME280;33524;55.434;38.520;2023-03-04T06:29:41;98381.66;;;-0.33;95.21
47761;BME280;33524;55.434;38.520;2023-03-04T06:32:15;98382.53;;;-0.18;95.00
47761;BME280;33524;55.434;38.520;2023-03-04T06:34:47;98366.53;;;-0.25;93.65
47761;BME280;33524;55.434;38.520;2023-03-04T06:37:17;98368.50;;;-0.14;93.58
47761;BME280;33524;55.434;38.520;2023-03-04T06:39:46;98372.81;;;-0.15;93.15
47761;BME280;33524;55.434;38.520;2023-03-04T06:42:15;98368.13;;;-0.08;93.26
47761;BME280;33524;55.434;38.520;2023-03-04T06:44:47;98369.66;;;0.09;91.08
47761;BME280;33524;55.434;38.520;2023-03-04T06:47:17;98363.13;;;0.30;90.72
47761;BME280;33524;55.434;38.520;2023-03-04T06:49:47;98364.16;;;0.55;89.06
47761;BME280;33524;55.434;38.520;2023-03-04T06:52:17;98361.28;;;0.59;86.78
47761;BME280;33524;55.434;38.520;2023-03-04T06:54:47;98359.44;;;0.62;85.30
47761;BME280;33524;55.434;38.520;2023-03-04T06:57:18;98354.84;;;0.92;84.39
47761;BME280;33524;55.434;38.520;2023-03-04T06:59:48;98334.59;;;1.25;81.16
47761;BME280;33524;55.434;38.520;2023-03-04T07:02:18;98352.63;;;1.65;80.63
47761;BME280;33524;55.434;38.520;2023-03-04T07:04:47;98351.34;;;1.83;77.62
47761;BME280;33524;55.434;38.520;2023-03-04T07:07:17;98346.56;;;1.90;75.34
47761;BME280;33524;55.434;38.520;2023-03-04T07:09:46;98341.19;;;1.67;73.67
47761;BME280;33524;55.434;38.520;2023-03-04T07:12:16;98345.25;;;1.71;72.75
47761;BME280;33524;55.434;38.520;2023-03-04T07:14:46;98343.06;;;1.65;72.57
47761;BME280;33524;55.434;38.520;2023-03-04T07:17:16;98333.47;;;1.41;72.67
47761;BME280;33524;55.434;38.520;2023-03-04T07:19:46;98335.81;;;1.45;72.75
47761;BME280;33524;55.434;38.520;2023-03-04T07:22:17;98333.53;;;1.53;72.18
47761;BME280;33524;55.434;38.520;2023-03-04T07:24:50;98332.00;;;1.50;71.56
47761;BME280;33524;55.434;38.520;2023-03-04T07:27:21;98324.97;;;1.39;71.85
47761;BME280;33524;55.434;38.520;2023-03-04T07:29:51;98325.47;;;1.45;72.99
47761;BME280;33524;55.434;38.520;2023-03-04T07:32:21;98316.37;;;1.39;72.71
47761;BME280;33524;55.434;38.520;2023-03-04T07:34:51;98312.31;;;1.48;71.62
47761;BME280;33524;55.434;38.520;2023-03-04T07:37:20;98316.72;;;1.84;71.69
47761;BME280;33524;55.434;38.520;2023-03-04T07:39:49;98300.69;;;2.27;69.17
47761;BME280;33524;55.434;38.520;2023-03-04T07:42:19;98301.87;;;2.47;68.30
47761;BME280;33524;55.434;38.520;2023-03-04T07:44:51;98293.66;;;2.65;67.68
47761;BME280;33524;55.434;38.520;2023-03-04T07:47:23;98292.75;;;2.66;66.36
47761;BME280;33524;55.434;38.520;2023-03-04T07:49:53;98292.28;;;2.36;66.58
47761;BME280;33524;55.434;38.520;2023-03-04T07:52:26;98275.09;;;2.47;66.95
47761;BME280;33524;55.434;38.520;2023-03-04T07:54:55;98275.81;;;2.95;66.84
47761;BME280;33524;55.434;38.520;2023-03-04T07:57:26;98278.69;;;3.26;65.34
47761;BME280;33524;55.434;38.520;2023-03-04T07:59:55;98275.88;;;3.52;64.47
47761;BME280;33524;55.434;38.520;2023-03-04T08:02:29;98276.88;;;4.06;62.20
47761;BME280;33524;55.434;38.520;2023-03-04T08:04:59;98279.56;;;4.15;61.60
47761;BME280;33524;55.434;38.520;2023-03-04T08:07:30;98269.63;;;4.09;61.07
47761;BME280;33524;55.434;38.520;2023-03-04T08:10:07;98268.53;;;3.91;62.48
47761;BME280;33524;55.434;38.520;2023-03-04T08:12:38;98269.81;;;3.85;60.65
47761;BME280;33524;55.434;38.520;2023-03-04T08:15:09;98266.06;;;3.67;61.26
47761;BME280;33524;55.434;38.520;2023-03-04T08:17:46;98266.88;;;3.78;61.14
47761;BME280;33524;55.434;38.520;2023-03-04T08:20:16;98268.06;;;3.63;61.67
47761;BME280;33524;55.434;38.520;2023-03-04T08:22:46;98269.69;;;3.98;62.69
47761;BME280;33524;55.434;38.520;2023-03-04T08:25:15;98260.06;;;4.42;60.42
47761;BME280;33524;55.434;38.520;2023-03-04T08:27:46;98252.22;;;4.95;58.57
47761;BME280;33524;55.434;38.520;2023-03-04T08:30:17;98258.50;;;5.14;56.99
47761;BME280;33524;55.434;38.520;2023-03-04T08:32:46;98252.09;;;4.97;57.31
47761;BME280;33524;55.434;38.520;2023-03-04T08:35:16;98244.28;;;4.97;57.99
47761;BME280;33524;55.434;38.520;2023-03-04T08:37:48;98249.38;;;4.98;57.42
47761;BME280;33524;55.434;38.520;2023-03-04T08:40:18;98247.09;;;4.84;58.43
47761;BME280;33524;55.434;38.520;2023-03-04T08:42:48;98240.84;;;4.54;58.14
47761;BME280;33524;55.434;38.520;2023-03-04T08:45:17;98234.72;;;4.55;58.49
47761;BME280;33524;55.434;38.520;2023-03-04T08:47:47;98236.84;;;4.50;60.43
47761;BME280;33524;55.434;38.520;2023-03-04T08:50:17;98230.41;;;4.33;62.12
47761;BME280;33524;55.434;38.520;2023-03-04T08:52:50;98234.47;;;4.26;59.94
47761;BME280;33524;55.434;38.520;2023-03-04T08:55:20;98229.59;;;4.33;61.59
47761;BME280;33524;55.434;38.520;2023-03-04T08:57:50;98224.41;;;4.33;59.96
47761;BME280;33524;55.434;38.520;2023-03-04T09:00:20;98225.41;;;4.09;61.57
47761;BME280;33524;55.434;38.520;2023-03-04T09:02:52;98224.31;;;4.23;61.34
47761;BME280;33524;55.434;38.520;2023-03-04T09:05:23;98221.47;;;4.26;59.13
47761;BME280;33524;55.434;38.520;2023-03-04T09:07:59;98219.59;;;4.17;59.07
47761;BME280;33524;55.434;38.520;2023-03-04T09:10:29;98211.47;;;4.10;59.88
47761;BME280;33524;55.434;38.520;2023-03-04T09:12:59;98209.47;;;4.35;59.31
47761;BME280;33524;55.434;38.520;2023-03-04T09:15:29;98193.06;;;4.55;60.14
47761;BME280;33524;55.434;38.520;2023-03-04T09:18:01;98198.38;;;4.75;57.31
47761;BME280;33524;55.434;38.520;2023-03-04T09:20:31;98195.31;;;4.91;59.78
47761;BME280;33524;55.434;38.520;2023-03-04T09:23:01;98186.22;;;5.16;57.44
47761;BME280;33524;55.434;38.520;2023-03-04T09:25:32;98181.69;;;5.49;55.51
47761;BME280;33524;55.434;38.520;2023-03-04T09:28:03;98177.72;;;5.54;54.73
47761;BME280;33524;55.434;38.520;2023-03-04T09:30:36;98179.47;;;5.44;55.37
47761;BME280;33524;55.434;38.520;2023-03-04T09:33:06;98175.56;;;5.69;55.08
47761;BME280;33524;55.434;38.520;2023-03-04T09:35:36;98171.41;;;5.07;56.81
47761;BME280;33524;55.434;38.520;2023-03-04T09:38:06;98158.84;;;5.31;56.10
47761;BME280;33524;55.434;38.520;2023-03-04T09:40:39;98156.91;;;5.83;54.39
47761;BME280;33524;55.434;38.520;2023-03-04T09:43:18;98150.19;;;5.81;55.40
47761;BME280;33524;55.434;38.520;2023-03-04T09:45:54;98139.59;;;5.92;55.92
47761;BME280;33524;55.434;38.520;2023-03-04T09:48:27;98132.59;;;6.51;54.16
47761;BME280;33524;55.434;38.520;2023-03-04T09:52:09;98133.72;;;6.39;55.35
47761;BME280;33524;55.434;38.520;2023-03-04T09:54:08;98123.78;;;6.52;53.33
47761;BME280;33524;55.434;38.520;2023-03-04T09:56:40;98121.72;;;6.93;53.17
47761;BME280;33524;55.434;38.520;2023-03-04T09:59:23;98124.72;;;6.98;53.53
47761;BME280;33524;55.434;38.520;2023-03-04T10:01:55;98123.28;;;7.14;50.93
47761;BME280;33524;55.434;38.520;2023-03-04T10:04:33;98124.00;;;6.78;50.48
47761;BME280;33524;55.434;38.520;2023-03-04T10:07:07;98106.28;;;5.96;56.34
47761;BME280;33524;55.434;38.520;2023-03-04T10:09:48;98062.72;;;5.57;55.54
47761;BME280;33524;55.434;38.520;2023-03-04T10:12:22;98107.22;;;5.75;54.98
47761;BME280;33524;55.434;38.520;2023-03-04T10:20:09;98087.69;;;5.40;56.19
47761;BME280;33524;55.434;38.520;2023-03-04T10:22:44;98085.63;;;5.44;56.73
47761;BME280;33524;55.434;38.520;2023-03-04T10:25:21;98079.72;;;6.20;55.68
47761;BME280;33524;55.434;38.520;2023-03-04T10:33:01;98071.38;;;5.87;57.35
47761;BME280;33524;55.434;38.520;2023-03-04T10:35:35;98055.41;;;6.29;52.75
47761;BME280;33524;55.434;38.520;2023-03-04T10:38:06;98049.44;;;5.60;56.56
47761;BME280;33524;55.434;38.520;2023-03-04T10:40:40;98049.41;;;5.41;57.51
47761;BME280;33524;55.434;38.520;2023-03-04T10:43:17;98042.53;;;5.11;55.56
47761;BME280;33524;55.434;38.520;2023-03-04T10:45:48;98045.72;;;4.74;56.86
47761;BME280;33524;55.434;38.520;2023-03-04T10:48:25;98045.06;;;4.51;57.66
47761;BME280;33524;55.434;38.520;2023-03-04T10:51:09;98034.47;;;4.12;59.23
47761;BME280;33524;55.434;38.520;2023-03-04T10:53:42;98030.47;;;3.87;59.53
47761;BME280;33524;55.434;38.520;2023-03-04T10:56:34;98027.69;;;3.78;61.76
47761;BME280;33524;55.434;38.520;2023-03-04T10:59:28;98010.81;;;3.52;65.60
47761;BME280;33524;55.434;38.520;2023-03-04T11:02:33;98008.62;;;3.57;61.12
47761;BME280;33524;55.434;38.520;2023-03-04T11:05:25;98010.00;;;3.72;61.60
47761;BME280;33524;55.434;38.520;2023-03-04T11:07:50;98006.84;;;3.57;61.62
47761;BME280;33524;55.434;38.520;2023-03-04T11:10:37;97998.31;;;3.46;63.71
47761;BME280;33524;55.434;38.520;2023-03-04T11:15:59;97991.59;;;3.64;64.12
47761;BME280;33524;55.434;38.520;2023-03-04T11:18:44;97985.81;;;3.81;61.87
47761;BME280;33524;55.434;38.520;2023-03-04T11:21:19;97982.38;;;4.02;60.22
47761;BME280;33524;55.434;38.520;2023-03-04T11:24:02;97975.50;;;4.01;63.66
47761;BME280;33524;55.434;38.520;2023-03-04T11:26:39;97977.19;;;4.02;60.48
47761;BME280;33524;55.434;38.520;2023-03-04T11:29:23;97971.09;;;3.92;59.46
47761;BME280;33524;55.434;38.520;2023-03-04T11:37:01;97958.28;;;4.00;60.04
47761;BME280;33524;55.434;38.520;2023-03-04T11:39:36;97961.72;;;3.79;61.40
47761;BME280;33524;55.434;38.520;2023-03-04T11:42:28;97957.81;;;3.64;60.60
47761;BME280;33524;55.434;38.520;2023-03-04T11:44:57;97954.94;;;3.46;64.58
47761;BME280;33524;55.434;38.520;2023-03-04T11:50:14;97944.97;;;3.09;67.55
47761;BME280;33524;55.434;38.520;2023-03-04T12:02:30;97935.13;;;2.48;66.35
47761;BME280;33524;55.434;38.520;2023-03-04T12:07:51;97925.28;;;2.52;67.41
47761;BME280;33524;55.434;38.520;2023-03-04T12:10:48;97918.91;;;2.56;70.01
47761;BME280;33524;55.434;38.520;2023-03-04T12:13:31;97933.47;;;2.36;69.87
47761;BME280;33524;55.434;38.520;2023-03-04T12:24:39;97925.91;;;1.54;75.44
47761;BME280;33524;55.434;38.520;2023-03-04T12:27:23;97928.25;;;1.46;76.07
47761;BME280;33524;55.434;38.520;2023-03-04T12:38:52;97911.72;;;1.24;78.69
47761;BME280;33524;55.434;38.520;2023-03-04T12:41:27;97895.72;;;1.30;78.53
47761;BME280;33524;55.434;38.520;2023-03-04T12:43:49;97893.97;;;1.31;78.52
47761;BME280;33524;55.434;38.520;2023-03-04T12:51:52;97889.28;;;1.00;81.98
47761;BME280;33524;55.434;38.520;2023-03-04T12:54:31;97875.94;;;1.29;79.75
47761;BME280;33524;55.434;38.520;2023-03-04T12:57:13;97874.25;;;1.17;80.98
47761;BME280;33524;55.434;38.520;2023-03-04T13:03:46;97872.56;;;1.05;82.14
47761;BME280;33524;55.434;38.520;2023-03-04T13:11:37;97836.03;;;1.20;80.01
47761;BME280;33524;55.434;38.520;2023-03-04T13:17:35;97832.03;;;1.28;81.12
47761;BME280;33524;55.434;38.520;2023-03-04T13:22:41;97826.75;;;1.29;80.27
47761;BME280;33524;55.434;38.520;2023-03-04T13:25:32;97816.62;;;1.37;79.44
47761;BME280;33524;55.434;38.520;2023-03-04T13:28:14;97818.63;;;1.23;80.23
47761;BME280;33524;55.434;38.520;2023-03-04T13:36:50;97794.72;;;1.08;81.61
47761;BME280;33524;55.434;38.520;2023-03-04T13:39:27;97795.88;;;1.15;81.26
47761;BME280;33524;55.434;38.520;2023-03-04T13:41:57;97800.59;;;1.21;81.25
47761;BME280;33524;55.434;38.520;2023-03-04T13:47:14;97780.03;;;1.31;78.58
47761;BME280;33524;55.434;38.520;2023-03-04T13:49:45;97785.31;;;1.18;80.45
47761;BME280;33524;55.434;38.520;2023-03-04T13:52:37;97775.53;;;1.21;79.64
47761;BME280;33524;55.434;38.520;2023-03-04T13:55:29;97780.81;;;0.97;81.92
47761;BME280;33524;55.434;38.520;2023-03-04T13:58:08;97777.50;;;0.95;81.38
47761;BME280;33524;55.434;38.520;2023-03-04T14:00:47;97771.94;;;0.77;82.97
47761;BME280;33524;55.434;38.520;2023-03-04T14:03:22;97768.09;;;0.94;81.37
47761;BME280;33524;55.434;38.520;2023-03-04T14:08:50;97755.50;;;0.90;81.01
47761;BME280;33524;55.434;38.520;2023-03-04T14:11:33;97750.94;;;1.05;79.85
47761;BME280;33524;55.434;38.520;2023-03-04T14:14:06;97749.38;;;0.79;82.45
47761;BME280;33524;55.434;38.520;2023-03-04T14:16:39;97746.31;;;0.86;81.48
47761;BME280;33524;55.434;38.520;2023-03-04T14:19:16;97742.41;;;0.80;81.76
47761;BME280;33524;55.434;38.520;2023-03-04T14:21:48;97734.44;;;0.94;80.83
47761;BME280;33524;55.434;38.520;2023-03-04T14:24:20;97733.94;;;0.78;82.02
47761;BME280;33524;55.434;38.520;2023-03-04T14:27:09;97734.28;;;0.73;81.85
47761;BME280;33524;55.434;38.520;2023-03-04T14:29:40;97728.06;;;0.76;81.52
47761;BME280;33524;55.434;38.520;2023-03-04T14:32:11;97717.97;;;0.73;81.60
47761;BME280;33524;55.434;38.520;2023-03-04T14:34:42;97718.53;;;0.76;81.01
47761;BME280;33524;55.434;38.520;2023-03-04T14:37:22;97706.06;;;0.59;82.33
47761;BME280;33524;55.434;38.520;2023-03-04T14:39:56;97704.53;;;0.68;81.94
47761;BME280;33524;55.434;38.520;2023-03-04T14:42:35;97707.22;;;0.66;81.45
47761;BME280;33524;55.434;38.520;2023-03-04T14:45:12;97698.41;;;0.57;82.03
47761;BME280;33524;55.434;38.520;2023-03-04T14:47:46;97694.44;;;0.65;81.49